Time;durP1;ratioP1;P1;durP2;ratioP2;P2;SDS_P1;SDS_P2;PMS_P1;PMS_P2;Temp;Humidity;BMP_temperature;BMP_pressure;BME280_temperature;BME280_humidity;BME280_pressure;Samples;Min_cycle;Max_cycle;Signal;HPM_P1;HPM_P2
2022/11/01 00:00:05;;;;;;;10.97;4.50;;;;;;;13.80;92.61;100793.16;5079756;28;20124;-88
2022/11/01 00:02:30;;;;;;;8.00;4.03;;;;;;;13.90;91.11;100789.38;5080588;28;20027;-88
2022/11/01 00:04:55;;;;;;;10.47;4.53;;;;;;;13.94;91.91;100778.84;5080170;28;20024;-88
2022/11/01 00:07:21;;;;;;;6.53;3.77;;;;;;;13.98;92.13;100773.50;5080873;28;20099;-90
2022/11/01 00:09:46;;;;;;;5.73;3.80;;;;;;;14.02;90.87;100772.50;5075756;28;20035;-88
2022/11/01 00:12:11;;;;;;;9.07;4.10;;;;;;;14.06;91.65;100768.03;5059513;28;20079;-88
2022/11/01 00:14:37;;;;;;;9.20;3.93;;;;;;;14.12;92.06;100761.78;5060461;28;20351;-88
2022/11/01 00:17:02;;;;;;;7.80;4.07;;;;;;;14.19;92.15;100764.16;5059254;28;20481;-89
2022/11/01 00:19:27;;;;;;;9.37;4.10;;;;;;;14.23;91.82;100758.84;5059400;28;20035;-88
2022/11/01 00:21:52;;;;;;;7.43;3.90;;;;;;;14.27;91.75;100755.22;5059814;28;20028;-87
2022/11/01 00:24:18;;;;;;;7.10;3.90;;;;;;;14.28;91.75;100755.19;5059340;28;20115;-88
2022/11/01 00:26:43;;;;;;;10.73;4.20;;;;;;;14.33;92.00;100750.66;5059701;28;20021;-89
2022/11/01 00:29:09;;;;;;;8.97;4.20;;;;;;;14.43;92.00;100758.16;5059720;28;20481;-88
2022/11/01 00:31:35;;;;;;;6.45;3.80;;;;;;;14.49;91.81;100756.22;5059238;28;20473;-88
2022/11/01 00:34:02;;;;;;;9.73;4.20;;;;;;;14.58;91.44;100756.84;5074696;28;20112;-89
2022/11/01 00:36:28;;;;;;;8.85;3.90;;;;;;;14.64;91.72;100751.41;5079929;28;20052;-89
2022/11/01 00:38:53;;;;;;;8.80;4.00;;;;;;;14.73;91.75;100747.66;5079752;28;20056;-88
2022/11/01 00:41:20;;;;;;;6.40;3.63;;;;;;;14.79;91.50;100750.03;5079589;28;20051;-88
2022/11/01 00:43:46;;;;;;;8.20;3.50;;;;;;;14.82;91.25;100748.16;5079778;28;20104;-88
2022/11/01 00:46:11;;;;;;;5.33;3.47;;;;;;;14.84;91.40;100748.13;5068278;28;20071;-88
2022/11/01 00:48:36;;;;;;;5.77;3.50;;;;;;;14.86;91.06;100748.91;5059881;28;20029;-88
2022/11/01 00:51:01;;;;;;;7.63;3.83;;;;;;;14.87;91.25;100750.63;5055932;28;20021;-88
2022/11/01 00:53:27;;;;;;;4.70;3.17;;;;;;;14.86;91.05;100748.91;5057360;28;20025;-88
2022/11/01 00:55:59;;;;;;;6.77;3.70;;;;;;;14.87;90.92;100753.25;5075800;28;20170;-88
2022/11/01 00:58:24;;;;;;;7.15;3.80;;;;;;;14.88;91.08;100751.50;5076718;28;20644;-89
2022/11/01 01:00:49;;;;;;;7.50;3.67;;;;;;;14.87;91.04;100734.09;5075776;28;20112;-88
2022/11/01 01:03:15;;;;;;;7.43;3.47;;;;;;;14.86;90.83;100737.63;5076241;28;20020;-88
2022/11/01 01:05:40;;;;;;;6.63;3.50;;;;;;;14.87;90.75;100734.94;5075761;28;20111;-88
2022/11/01 01:08:05;;;;;;;8.17;3.83;;;;;;;14.89;90.95;100740.97;5072143;28;20051;-88
2022/11/01 01:10:30;;;;;;;6.87;3.90;;;;;;;14.88;91.14;100741.03;5056026;28;20047;-88
2022/11/01 01:12:56;;;;;;;8.93;4.00;;;;;;;14.88;91.33;100735.81;5055997;28;20085;-88
2022/11/01 01:15:21;;;;;;;7.20;3.60;;;;;;;14.90;91.15;100728.78;5065526;28;20047;-88
2022/11/01 01:17:46;;;;;;;6.63;3.73;;;;;;;14.91;91.23;100733.94;5075853;28;20016;-89
2022/11/01 01:20:13;;;;;;;7.47;4.03;;;;;;;14.92;91.47;100732.16;5075349;28;20020;-88
2022/11/01 01:22:38;;;;;;;8.35;3.90;;;;;;;14.95;91.58;100730.31;5075221;28;20461;-89
2022/11/01 01:25:04;;;;;;;7.77;3.33;;;;;;;15.00;90.99;100734.53;5075784;28;20059;-88
2022/11/01 01:27:29;;;;;;;7.57;4.05;;;;;;;15.02;91.27;100735.31;5075966;28;20024;-87
2022/11/01 01:29:55;;;;;;;5.50;3.33;;;;;;;15.03;91.00;100737.88;5066085;28;20054;-88
2022/11/01 01:32:22;;;;;;;6.40;3.67;;;;;;;15.06;91.38;100731.69;5055540;28;20387;-89
2022/11/01 01:34:48;;;;;;;6.53;3.60;;;;;;;15.06;91.43;100740.38;5075108;22;20075;-87
2022/11/01 01:37:14;;;;;;;5.38;3.20;;;;;;;15.08;91.71;100735.13;5075247;28;20103;-88
2022/11/01 01:39:40;;;;;;;6.93;3.60;;;;;;;15.08;91.77;100733.34;5075700;28;20043;-89
2022/11/01 01:42:13;;;;;;;10.70;4.10;;;;;;;15.09;91.71;100729.81;5074746;28;20059;-89
2022/11/01 01:44:50;;;;;;;5.15;3.33;;;;;;;15.10;91.58;100741.13;5075410;28;20035;-88
2022/11/01 01:47:35;;;;;;;8.63;4.20;;;;;;;15.10;91.98;100730.66;5075396;28;20032;-88
2022/11/01 01:50:24;;;;;;;8.10;4.05;;;;;;;15.13;91.73;100730.56;5075009;28;20044;-88
2022/11/01 01:52:55;;;;;;;7.07;3.85;;;;;;;15.13;91.95;100726.19;5074803;28;20032;-87
2022/11/01 01:55:25;;;;;;;7.93;4.03;;;;;;;15.14;91.70;100724.44;5074960;28;20035;-87
2022/11/01 01:57:54;;;;;;;8.40;3.70;;;;;;;15.13;92.07;100715.75;5074528;28;20029;-88
2022/11/01 02:00:19;;;;;;;6.50;3.38;;;;;;;15.13;92.16;100714.88;5074930;28;20031;-89
2022/11/01 02:02:45;;;;;;;7.27;3.70;;;;;;;15.14;92.33;100714.81;5074292;28;20032;-88
2022/11/01 02:05:18;;;;;;;10.63;4.13;;;;;;;15.19;92.21;100724.25;5074882;28;20062;-87
2022/11/01 02:07:44;;;;;;;9.10;4.00;;;;;;;15.21;92.17;100715.44;5075002;28;20078;-89
2022/11/01 02:10:13;;;;;;;8.40;3.88;;;;;;;15.24;92.24;100712.72;5074629;28;20037;-87
2022/11/01 02:12:44;;;;;;;8.95;4.00;;;;;;;15.33;91.91;100710.66;5074875;28;20469;-88
2022/11/01 02:15:12;;;;;;;8.60;3.90;;;;;;;15.34;91.64;100720.22;5071781;28;20036;-88
2022/11/01 02:18:26;;;;;;;9.15;4.07;;;;;;;15.34;91.60;100725.44;5054727;28;20029;-88
2022/11/01 02:21:19;;;;;;;8.23;3.72;;;;;;;15.33;91.74;100722.00;4993267;28;20089;-89
2022/11/01 02:24:02;;;;;;;7.40;3.85;;;;;;;15.44;91.12;100729.44;4999450;28;20125;-89
2022/11/01 02:27:13;;;;;;;12.30;4.05;;;;;;;15.45;91.08;100723.28;5064696;28;20040;-89
2022/11/01 02:30:00;;;;;;;8.32;3.83;;;;;;;15.45;91.12;100720.66;5042341;28;20481;-89
2022/11/01 02:32:36;;;;;;;7.95;4.10;;;;;;;15.47;91.06;100718.03;5074578;28;20389;-88
2022/11/01 02:35:23;;;;;;;9.85;4.80;;;;;;;15.46;90.57;100711.91;5074079;28;20052;-88
2022/11/01 02:38:04;;;;;;;10.65;4.43;;;;;;;15.48;90.61;100724.97;5057993;28;20029;-87
2022/11/01 02:40:48;;;;;;;9.85;4.25;;;;;;;15.52;90.32;100729.13;5054467;28;20036;-89
2022/11/01 02:43:18;;;;;;;5.65;3.63;;;;;;;15.53;89.79;100723.88;5054092;28;20391;-88
2022/11/01 02:45:48;;;;;;;6.50;3.60;;;;;;;15.52;90.33;100735.25;5054088;28;20031;-89
2022/11/01 02:48:16;;;;;;;7.20;3.40;;;;;;;15.50;89.77;100734.44;5053546;28;20025;-88
2022/11/01 02:50:46;;;;;;;6.70;3.50;;;;;;;15.49;90.00;100737.09;5054219;28;20025;-87
2022/11/01 02:53:11;;;;;;;6.05;3.30;;;;;;;15.45;90.31;100738.97;5053469;28;20060;-86
2022/11/01 02:55:37;;;;;;;8.57;4.13;;;;;;;15.43;90.34;100739.03;5053734;28;20057;-87
2022/11/01 02:58:05;;;;;;;9.00;3.87;;;;;;;15.44;90.33;100739.88;5053896;28;20025;-88
2022/11/01 03:00:34;;;;;;;6.43;3.60;;;;;;;15.42;90.40;100749.56;5053418;28;20036;-88
2022/11/01 03:03:03;;;;;;;6.85;3.63;;;;;;;15.39;90.60;100741.84;5053874;28;20074;-88
2022/11/01 03:05:59;;;;;;;7.35;3.53;;;;;;;15.37;90.60;100757.56;5054129;28;20035;-89
2022/11/01 03:08:33;;;;;;;6.22;3.72;;;;;;;15.34;90.86;100756.81;5053735;28;20025;-90
2022/11/01 03:10:58;;;;;;;5.55;3.40;;;;;;;15.33;91.06;100758.59;5054601;28;20033;-89
2022/11/01 03:13:33;;;;;;;6.63;3.37;;;;;;;15.31;91.06;100756.97;5053741;28;20036;-88
2022/11/01 03:16:11;;;;;;;6.00;3.08;;;;;;;15.28;91.18;100765.75;5054577;28;20033;-87
2022/11/01 03:18:44;;;;;;;5.65;3.20;;;;;;;15.27;91.20;100766.66;5070712;28;20024;-88
2022/11/01 03:21:14;;;;;;;6.60;3.22;;;;;;;15.26;91.13;100773.66;5074103;28;20119;-88
2022/11/01 03:23:50;;;;;;;4.90;3.20;;;;;;;15.24;91.39;100791.16;5073940;28;20036;-88
2022/11/01 03:26:24;;;;;;;7.20;3.57;;;;;;;15.14;90.77;100782.78;5073487;28;20484;-88
2022/11/01 03:28:54;;;;;;;9.07;3.88;;;;;;;15.15;89.68;100781.03;5073795;28;20032;-88
2022/11/01 03:31:26;;;;;;;8.65;3.88;;;;;;;15.25;88.50;100800.72;5074045;28;20105;-90
2022/11/01 03:33:56;;;;;;;7.32;3.60;;;;;;;15.26;88.44;100797.19;5073238;28;20128;-89
2022/11/01 03:36:26;;;;;;;5.82;3.33;;;;;;;15.20;87.03;100807.84;5070127;28;20037;-88
2022/11/01 03:38:58;;;;;;;8.25;3.30;;;;;;;15.18;86.90;100800.97;5053514;28;20055;-87
2022/11/01 03:41:26;;;;;;;6.10;3.15;;;;;;;15.16;86.37;100808.88;5065538;28;20024;-89
2022/11/01 03:43:52;;;;;;;7.53;3.00;;;;;;;15.13;85.89;100812.47;5073411;28;20028;-87
2022/11/01 03:46:18;;;;;;;5.22;2.88;;;;;;;15.11;86.33;100822.13;5073403;28;20025;-88
2022/11/01 03:48:43;;;;;;;6.07;2.53;;;;;;;15.03;84.11;100834.56;5073477;28;20043;-88
2022/11/01 03:51:09;;;;;;;4.17;2.50;;;;;;;15.03;83.19;100813.66;5073234;28;20059;-88
2022/11/01 03:53:34;;;;;;;3.13;2.37;;;;;;;14.98;77.54;100826.06;5073612;28;20061;-88
2022/11/01 03:55:59;;;;;;;4.77;2.00;;;;;;;15.00;79.55;100832.09;5065986;28;20029;-87
2022/11/01 03:58:40;;;;;;;3.27;2.17;;;;;;;14.94;77.67;100851.44;5053331;28;20108;-90
2022/11/01 04:01:06;;;;;;;4.80;1.90;;;;;;;14.90;75.70;100843.75;5053129;28;20466;-88
2022/11/01 04:03:31;;;;;;;1.63;1.50;;;;;;;14.87;76.96;100862.13;5053293;28;20047;-89
2022/11/01 04:05:56;;;;;;;3.67;1.87;;;;;;;14.81;75.13;100855.34;5052996;28;20082;-88
2022/11/01 04:08:22;;;;;;;1.50;1.20;;;;;;;14.77;76.88;100864.19;5053345;28;20028;-88
2022/11/01 04:10:47;;;;;;;3.47;1.50;;;;;;;14.64;73.25;100874.16;5052898;28;20021;-87
2022/11/01 04:13:12;;;;;;;1.80;1.60;;;;;;;14.60;73.98;100889.06;5053377;28;20025;-89
2022/11/01 04:21:19;;;;;;;1.40;1.30;;;;;;;14.40;74.00;100902.72;5073013;28;20500;-88
2022/11/01 04:23:45;;;;;;;2.20;1.27;;;;;;;14.37;73.55;100915.88;5072898;28;20039;-88
2022/11/01 04:26:14;;;;;;;2.00;1.02;;;;;;;14.29;72.17;100916.13;5075497;28;20028;-89
2022/11/01 04:28:39;;;;;;;4.20;1.10;;;;;;;14.26;74.24;100921.44;5060607;28;20029;-89
2022/11/01 04:31:05;;;;;;;2.03;0.83;;;;;;;14.20;73.65;100932.03;5068093;28;20115;-89
2022/11/01 04:33:31;;;;;;;1.80;1.00;;;;;;;14.13;74.25;100930.50;5056338;28;20032;-90
2022/11/01 04:35:56;;;;;;;2.10;1.17;;;;;;;14.09;74.57;100944.53;5056680;28;20051;-88
2022/11/01 04:38:22;;;;;;;2.30;1.00;;;;;;;14.02;74.73;100949.94;5056543;28;20517;-89
2022/11/01 04:40:47;;;;;;;2.70;1.03;;;;;;;13.94;73.57;100954.53;5056790;28;20029;-87
2022/11/01 04:43:13;;;;;;;0.73;0.70;;;;;;;13.88;73.62;100954.69;5056289;28;20093;-88
2022/11/01 04:45:39;;;;;;;1.10;0.90;;;;;;;13.85;73.76;100959.97;5061579;28;20024;-89
2022/11/01 04:48:06;;;;;;;2.50;0.97;;;;;;;13.85;75.45;100967.78;5076626;28;20377;-88
2022/11/01 04:50:33;;;;;;;0.85;0.60;;;;;;;13.79;74.26;100981.84;5070436;28;20028;-89
2022/11/01 04:52:58;;;;;;;2.50;1.20;;;;;;;13.71;73.89;100971.66;5056052;28;20021;-87
2022/11/01 04:55:25;;;;;;;2.40;1.10;;;;;;;13.67;73.92;100980.44;5056720;28;20025;-90
2022/11/01 04:57:50;;;;;;;2.00;0.95;;;;;;;13.62;74.70;100992.75;5056305;28;20029;-88
2022/11/01 05:00:15;;;;;;;2.27;1.17;;;;;;;13.62;74.31;100995.38;5056589;28;20028;-91
2022/11/01 05:02:41;;;;;;;1.83;0.83;;;;;;;13.57;75.22;101010.25;5056532;28;20025;-91
2022/11/01 05:05:08;;;;;;;2.30;0.90;;;;;;;13.51;74.27;101015.66;5056039;28;20032;-88
2022/11/01 05:07:34;;;;;;;1.33;0.65;;;;;;;13.45;73.34;101021.88;5056358;28;20033;-89
2022/11/01 05:09:59;;;;;;;1.77;0.83;;;;;;;13.43;74.49;101063.59;5056105;28;20028;-86
2022/11/01 05:12:25;;;;;;;4.73;1.43;;;;;;;13.45;73.32;101027.09;5055705;28;20124;-88
2022/11/01 05:14:50;;;;;;;3.87;1.20;;;;;;;13.44;71.79;101026.22;5063214;28;20039;-92
2022/11/01 05:17:15;;;;;;;3.83;1.20;;;;;;;13.46;72.71;101028.75;5076148;28;20050;-90
2022/11/01 05:19:41;;;;;;;2.90;1.00;;;;;;;13.35;72.25;101036.81;5076502;28;20020;-91
2022/11/01 05:22:06;;;;;;;3.80;1.00;;;;;;;13.30;71.72;101038.66;5075932;28;20096;-92
2022/11/01 05:24:31;;;;;;;3.30;1.03;;;;;;;13.26;72.48;101042.25;5076294;28;20461;-90
2022/11/01 05:26:58;;;;;;;3.80;1.13;;;;;;;13.19;71.81;101049.38;5076202;28;20020;-89
2022/11/01 05:29:23;;;;;;;2.75;1.10;;;;;;;13.15;72.16;101050.31;5075853;28;20115;-91
2022/11/01 05:31:48;;;;;;;0.57;0.50;;;;;;;13.13;72.73;101049.50;5075804;28;20056;-90
2022/11/01 05:34:14;;;;;;;1.43;0.80;;;;;;;13.09;73.80;101051.31;5075314;28;20080;-89
2022/11/01 05:36:39;;;;;;;2.70;0.90;;;;;;;13.01;74.14;101055.84;5075600;28;20025;-91
2022/11/01 05:39:04;;;;;;;1.50;0.80;;;;;;;12.95;73.81;101054.22;5075982;28;20194;-89
2022/11/01 05:41:30;;;;;;;0.87;0.87;;;;;;;12.90;74.66;101058.66;5075431;28;20081;-91
2022/11/01 05:43:55;;;;;;;3.23;1.27;;;;;;;12.85;74.22;101055.31;5075674;28;20370;-90
2022/11/01 05:46:20;;;;;;;2.80;0.87;;;;;;;12.83;74.73;101068.34;5075936;28;20051;-91
2022/11/01 05:48:45;;;;;;;3.70;1.03;;;;;;;12.79;75.44;101071.94;5075213;28;20033;-89
2022/11/01 05:51:11;;;;;;;2.63;0.80;;;;;;;12.75;74.80;101065.06;5075320;28;20031;-90
2022/11/01 05:53:36;;;;;;;2.93;0.90;;;;;;;12.71;75.85;101066.03;5071971;28;20380;-89
2022/11/01 05:56:02;;;;;;;1.03;0.80;;;;;;;12.69;75.86;101072.16;5075256;28;20031;-92
2022/11/01 05:58:27;;;;;;;1.90;1.00;;;;;;;12.71;75.34;101081.66;5075814;28;20035;-90
2022/11/01 06:01:01;;;;;;;2.33;0.90;;;;;;;12.63;75.59;101088.75;5076037;28;20024;-91
2022/11/01 06:03:27;;;;;;;2.67;0.93;;;;;;;12.61;74.93;101091.41;5076047;28;20025;-91
2022/11/01 06:05:52;;;;;;;2.80;1.20;;;;;;;12.59;73.29;101089.72;5075024;28;20062;-91
2022/11/01 06:08:17;;;;;;;3.03;1.30;;;;;;;12.54;73.38;101097.63;5075087;28;20043;-92
2022/11/01 06:10:43;;;;;;;2.83;1.20;;;;;;;12.50;71.12;101106.38;5074724;28;20020;-90
2022/11/01 06:13:08;;;;;;;5.33;1.60;;;;;;;12.46;72.07;101097.75;5074751;28;20029;-89
2022/11/01 06:15:34;;;;;;;2.87;1.37;;;;;;;12.46;72.63;101096.88;5075356;28;20461;-87
2022/11/01 06:17:59;;;;;;;3.47;1.47;;;;;;;12.40;72.76;101110.88;5079003;28;20032;-93
2022/11/01 06:20:29;;;;;;;2.53;1.30;;;;;;;12.36;72.40;101117.88;5074665;28;20037;-91
2022/11/01 06:22:55;;;;;;;2.40;1.40;;;;;;;12.34;72.60;101124.00;5074410;28;20050;-91
2022/11/01 06:25:20;;;;;;;3.78;1.50;;;;;;;12.35;73.16;101131.78;5075177;28;20055;-92
2022/11/01 06:27:46;;;;;;;1.90;1.23;;;;;;;12.31;73.25;101127.53;5056052;28;20028;-91
2022/11/01 06:30:11;;;;;;;2.93;1.20;;;;;;;12.28;73.06;101118.91;5054644;28;20032;-91
2022/11/01 06:32:36;;;;;;;2.20;1.13;;;;;;;12.25;73.71;101132.00;5055013;28;20033;-93
2022/11/01 06:35:02;;;;;;;4.40;1.53;;;;;;;12.25;73.86;101132.84;5054958;28;20501;-91
2022/11/01 06:37:27;;;;;;;5.00;1.23;;;;;;;12.25;74.58;101145.00;5054500;28;20047;-89
2022/11/01 06:39:52;;;;;;;1.27;1.10;;;;;;;12.23;74.82;101144.16;5054883;28;20060;-90
2022/11/01 06:42:17;;;;;;;2.83;1.20;;;;;;;12.19;74.40;101144.22;5054148;28;20029;-89
2022/11/01 06:44:55;;;;;;;2.17;1.30;;;;;;;12.17;74.96;101153.78;5054342;28;20114;-86
2022/11/01 06:47:33;;;;;;;2.50;1.05;;;;;;;12.18;75.04;101158.09;5066277;28;20025;-87
2022/11/01 06:50:10;;;;;;;3.83;1.33;;;;;;;12.16;74.99;101157.25;5072581;28;20028;-86
2022/11/01 06:52:48;;;;;;;3.85;1.00;;;;;;;12.15;75.71;101184.19;5072541;28;20107;-86
2022/11/01 06:55:27;;;;;;;2.95;1.08;;;;;;;12.09;75.84;101168.66;5073164;28;20392;-85
2022/11/01 06:57:57;;;;;;;2.78;1.20;;;;;;;12.07;75.90;101182.59;5073059;28;20025;-85
2022/11/01 07:00:24;;;;;;;3.20;1.33;;;;;;;12.02;75.53;101180.91;5072997;28;20097;-86
2022/11/01 07:02:58;;;;;;;3.88;1.10;;;;;;;12.03;76.10;101184.38;5072978;28;20020;-89
2022/11/01 07:05:23;;;;;;;2.08;1.13;;;;;;;12.03;75.26;101187.84;5073954;28;20034;-91
2022/11/01 07:07:49;;;;;;;3.57;1.00;;;;;;;12.02;76.13;101199.13;5073139;28;20115;-91
2022/11/01 07:10:14;;;;;;;3.30;0.93;;;;;;;12.00;76.56;101194.84;5066121;28;20037;-91
2022/11/01 07:12:39;;;;;;;4.47;1.27;;;;;;;11.98;76.22;101188.78;5054270;28;20108;-95
2022/11/01 07:15:31;;;;;;;2.73;1.00;;;;;;;11.97;76.40;101205.25;5054726;28;20099;-88
2022/11/01 07:18:02;;;;;;;4.32;1.33;;;;;;;12.00;76.55;101205.25;5052519;28;20397;-84
2022/11/01 07:20:29;;;;;;;2.42;0.82;;;;;;;11.98;76.37;101220.00;5070925;28;20027;-84
2022/11/01 07:23:04;;;;;;;3.75;1.00;;;;;;;11.96;76.31;101230.41;5072689;28;20043;-83
2022/11/01 07:25:31;;;;;;;2.70;1.33;;;;;;;11.97;76.26;101239.06;5072665;28;20052;-84
2022/11/01 07:27:57;;;;;;;2.92;1.10;;;;;;;11.98;76.56;101233.00;5072077;28;20081;-83
2022/11/01 07:30:22;;;;;;;4.27;1.47;;;;;;;11.99;76.70;101242.53;5071430;28;20020;-83
2022/11/01 07:32:53;;;;;;;4.57;1.37;;;;;;;11.96;76.73;101239.94;5072395;28;20029;-84
2022/11/01 07:35:18;;;;;;;5.40;1.58;;;;;;;11.94;76.18;101239.97;5069936;28;20039;-83
2022/11/01 07:37:43;;;;;;;5.03;1.47;;;;;;;11.94;75.71;101246.91;5066623;28;20032;-82
2022/11/01 07:40:09;;;;;;;3.37;1.23;;;;;;;11.97;76.54;101250.34;5086740;28;20047;-83
2022/11/01 07:42:41;;;;;;;4.20;1.30;;;;;;;11.96;75.31;101253.81;5072711;28;20020;-83
2022/11/01 07:45:07;;;;;;;4.43;1.27;;;;;;;11.97;75.76;101273.75;5070020;28;20449;-83
2022/11/01 07:47:32;;;;;;;7.73;1.50;;;;;;;12.00;74.72;101265.06;5071211;28;20809;-84
2022/11/01 07:50:06;;;;;;;5.37;1.47;;;;;;;12.05;74.88;101271.06;5065907;28;20322;-93
2022/11/01 07:52:31;;;;;;;6.45;1.75;;;;;;;12.04;75.24;101269.34;5072747;28;20021;-91
2022/11/01 07:54:57;;;;;;;6.53;2.00;;;;;;;12.05;74.72;101271.94;5072973;28;20025;-94
2022/11/01 07:57:22;;;;;;;7.17;1.50;;;;;;;12.08;74.78;101277.97;5073670;28;20106;-92
2022/11/01 08:00:05;;;;;;;4.43;1.50;;;;;;;12.10;74.20;101281.41;5023126;28;20043;-90
2022/11/01 08:02:30;;;;;;;7.10;1.77;;;;;;;12.14;74.47;101296.97;5075156;28;20115;-90
2022/11/01 08:04:55;;;;;;;3.60;1.40;;;;;;;12.18;74.32;101300.38;5077430;28;20051;-91
2022/11/01 08:07:39;;;;;;;7.17;1.77;;;;;;;12.20;74.05;101280.41;5077275;28;20430;-89
2022/11/01 08:10:10;;;;;;;3.13;1.42;;;;;;;12.21;74.13;101287.31;5075931;28;20040;-87
2022/11/01 08:12:36;;;;;;;7.43;1.60;;;;;;;12.26;74.58;101292.47;5076882;28;20056;-88
2022/11/01 08:15:02;;;;;;;2.30;1.10;;;;;;;12.26;74.43;101295.06;5077185;28;20052;-89
2022/11/01 08:17:28;;;;;;;3.40;1.43;;;;;;;12.32;73.32;101300.16;5074756;28;20476;-91
2022/11/01 08:19:53;;;;;;;5.13;1.63;;;;;;;12.33;73.30;101304.47;5076438;28;20380;-87
2022/11/01 08:22:19;;;;;;;8.67;1.93;;;;;;;12.39;74.32;101306.13;5075803;28;20112;-89
2022/11/01 08:24:44;;;;;;;5.27;1.53;;;;;;;12.42;73.13;101309.53;5075852;28;20082;-88
2022/11/01 08:27:09;;;;;;;8.30;1.60;;;;;;;12.49;73.16;101316.38;5076353;28;20031;-88
2022/11/01 08:29:35;;;;;;;3.33;1.40;;;;;;;12.51;74.01;101318.97;5076162;28;20471;-87
2022/11/01 08:32:00;;;;;;;6.53;1.60;;;;;;;12.55;72.62;101310.22;5075764;28;20020;-86
2022/11/01 08:34:25;;;;;;;5.80;1.70;;;;;;;12.61;72.88;101317.91;5076143;28;20063;-86
2022/11/01 08:36:50;;;;;;;5.63;1.67;;;;;;;12.66;72.91;101323.06;5075650;28;20473;-86
2022/11/01 08:39:16;;;;;;;6.57;1.90;;;;;;;12.74;72.69;101321.19;5072452;28;20025;-87
2022/11/01 08:41:41;;;;;;;7.33;1.80;;;;;;;12.76;72.11;101326.38;5076403;28;20056;-87
2022/11/01 08:44:07;;;;;;;4.93;1.40;;;;;;;12.83;72.98;101326.22;5075325;28;20021;-85
2022/11/01 08:46:32;;;;;;;4.93;1.40;;;;;;;12.90;72.56;101328.75;5076213;28;20074;-91
2022/11/01 08:48:59;;;;;;;6.20;1.83;;;;;;;12.96;71.26;101318.19;5076049;28;20086;-92
2022/11/01 08:51:25;;;;;;;5.43;1.80;;;;;;;13.02;72.15;101323.31;5075747;28;20020;-92
2022/11/01 08:53:55;;;;;;;6.00;1.52;;;;;;;13.08;70.95;101322.34;5076277;28;20021;-90
2022/11/01 08:56:23;;;;;;;5.82;1.70;;;;;;;13.14;69.58;101330.03;5076361;28;20032;-92
2022/11/01 08:58:48;;;;;;;7.10;1.90;;;;;;;13.19;70.51;101322.13;5056262;28;20033;-88
2022/11/01 09:01:14;;;;;;;7.03;1.90;;;;;;;13.27;70.61;101328.09;5056192;28;20394;-90
2022/11/01 09:03:39;;;;;;;4.83;1.70;;;;;;;13.35;69.53;101339.22;5056569;28;20024;-91
2022/11/01 09:06:04;;;;;;;5.67;1.70;;;;;;;13.46;69.79;101339.03;5056831;28;20598;-93
2022/11/01 09:08:30;;;;;;;5.57;1.60;;;;;;;13.45;70.83;101352.97;5067160;28;20023;-92
2022/11/01 09:10:58;;;;;;;8.03;2.10;;;;;;;13.50;70.27;101348.53;5075016;28;20028;-89
2022/11/01 09:13:23;;;;;;;7.13;1.85;;;;;;;13.55;69.98;101343.22;5075435;28;20106;-89
2022/11/01 09:15:48;;;;;;;5.90;1.50;;;;;;;13.64;70.22;101356.06;5075879;28;20370;-90
2022/11/01 09:18:13;;;;;;;6.03;1.77;;;;;;;13.70;71.15;101355.97;5072732;28;20035;-90
2022/11/01 09:20:39;;;;;;;5.93;1.53;;;;;;;13.77;70.11;101348.88;5057635;28;20029;-90
2022/11/01 09:23:04;;;;;;;4.27;1.43;;;;;;;13.85;69.59;101359.13;5055489;28;20120;-89
2022/11/01 09:25:29;;;;;;;6.33;1.90;;;;;;;13.90;68.01;101346.84;5055990;28;20019;-90
2022/11/01 09:27:56;;;;;;;6.13;1.70;;;;;;;14.03;69.57;101355.28;5055496;28;20115;-91
2022/11/01 09:30:22;;;;;;;5.72;1.70;;;;;;;14.00;68.85;101360.59;5056034;28;20096;-89
2022/11/01 09:32:47;;;;;;;6.27;2.00;;;;;;;14.04;69.28;101357.00;5054918;28;20533;-90
2022/11/01 09:35:13;;;;;;;7.87;1.83;;;;;;;14.12;68.30;101356.84;5055087;28;20132;-91
2022/11/01 09:37:38;;;;;;;6.50;1.93;;;;;;;14.11;67.92;101361.22;5055638;28;20032;-91
2022/11/01 09:40:04;;;;;;;8.80;2.00;;;;;;;14.15;68.35;101377.66;5069802;28;20452;-89
2022/11/01 09:42:34;;;;;;;5.20;1.73;;;;;;;14.25;68.45;101370.47;5065069;28;20120;-90
2022/11/01 09:45:06;;;;;;;7.53;2.03;;;;;;;14.22;66.99;101389.66;5069307;28;20032;-92
2022/11/01 09:47:34;;;;;;;8.80;1.70;;;;;;;14.22;68.20;101389.66;5074764;28;20029;-91
2022/11/01 09:50:21;;;;;;;5.70;1.70;;;;;;;14.31;68.76;101404.28;5075047;28;20028;-92
2022/11/01 09:52:48;;;;;;;8.85;1.90;;;;;;;14.33;67.77;101397.28;5075236;28;20025;-89
2022/11/01 09:55:16;;;;;;;7.00;1.60;;;;;;;14.40;68.28;101401.47;5074721;28;20017;-91
2022/11/01 09:58:07;;;;;;;8.40;1.90;;;;;;;14.47;67.40;101416.09;5075166;28;20042;-91
2022/11/01 10:00:38;;;;;;;7.47;1.95;;;;;;;14.48;67.02;101416.97;5074305;28;20037;-90
2022/11/01 10:03:36;;;;;;;8.25;1.83;;;;;;;14.51;67.41;101419.50;5074221;28;20021;-91
2022/11/01 10:06:22;;;;;;;6.47;1.70;;;;;;;14.57;66.99;101421.13;5062066;28;20032;-93
2022/11/01 10:09:06;;;;;;;;;;;;;;;14.63;66.39;101419.25;5055256;28;20041;-93
2022/11/01 10:11:53;;;;;;;6.10;1.67;;;;;;;14.69;68.08;101418.28;5055064;28;20418;-90
2022/11/01 10:14:30;;;;;;;8.20;1.95;;;;;;;14.75;67.13;101433.78;5054983;28;20036;-90
2022/11/01 10:17:10;;;;;;;5.43;1.67;;;;;;;14.79;66.18;101429.34;5054693;28;20033;-91
2022/11/01 10:19:39;;;;;;;8.52;1.63;;;;;;;14.84;67.27;101430.09;5056929;28;20117;-88
2022/11/01 10:22:17;;;;;;;7.75;1.70;;;;;;;14.85;66.65;101429.22;5073835;28;20058;-89
2022/11/01 10:24:57;;;;;;;6.53;2.17;;;;;;;14.83;66.99;101423.16;5074697;28;20029;-89
2022/11/01 10:27:55;;;;;;;5.70;1.50;;;;;;;14.76;66.14;101434.63;5074801;28;20400;-92
2022/11/01 10:30:21;;;;;;;6.28;1.80;;;;;;;14.72;67.05;101430.41;5054380;28;20041;-89
2022/11/01 10:33:01;;;;;;;6.10;1.57;;;;;;;14.77;67.07;101432.00;5057160;28;20036;-92
2022/11/01 10:35:40;;;;;;;4.35;1.48;;;;;;;14.86;65.77;101420.44;5073817;28;20115;-92
2022/11/01 10:38:15;;;;;;;6.72;1.80;;;;;;;14.89;66.72;101437.84;5073913;28;20119;-91
2022/11/01 10:40:45;;;;;;;8.43;1.92;;;;;;;14.90;66.03;101437.78;5074091;28;20025;-90
2022/11/01 10:43:14;;;;;;;6.50;1.70;;;;;;;14.94;66.70;101439.44;5074052;28;20050;-92
2022/11/01 10:45:43;;;;;;;5.13;1.30;;;;;;;14.99;67.50;101444.56;5074594;28;20021;-91
2022/11/01 10:48:21;;;;;;;5.70;1.80;;;;;;;15.13;66.29;101441.59;5069378;28;20496;-90
2022/11/01 10:50:47;;;;;;;5.57;1.65;;;;;;;15.17;64.70;101439.75;5054997;28;20033;-91
2022/11/01 10:53:13;;;;;;;7.77;1.90;;;;;;;15.12;63.92;101448.59;5054731;28;20039;-89
2022/11/01 10:55:44;;;;;;;6.05;1.50;;;;;;;15.11;65.33;101446.88;5054331;28;20477;-89
2022/11/01 10:58:33;;;;;;;5.45;1.63;;;;;;;15.18;66.03;101436.25;5053975;28;20130;-90
2022/11/01 11:01:01;;;;;;;7.68;1.67;;;;;;;15.21;64.97;101442.25;5053885;28;20112;-92
2022/11/01 11:03:32;;;;;;;6.00;1.70;;;;;;;15.27;65.41;101439.50;5054149;28;20032;-91
2022/11/01 11:06:03;;;;;;;5.43;2.00;;;;;;;15.28;66.67;101448.19;5066599;28;20116;-90
2022/11/01 11:08:30;;;;;;;5.28;1.60;;;;;;;15.32;64.76;101441.13;5074093;28;20023;-88
2022/11/01 11:11:01;;;;;;;7.35;1.90;;;;;;;15.30;65.20;101433.31;5074217;28;20049;-90
2022/11/01 11:13:27;;;;;;;4.95;1.70;;;;;;;15.32;65.26;101433.28;5071164;28;20028;-91
2022/11/01 11:16:01;;;;;;;6.67;1.60;;;;;;;15.32;64.75;101430.66;5053837;28;20020;-92
2022/11/01 11:18:30;;;;;;;6.90;1.70;;;;;;;15.33;64.47;101435.00;5053739;28;20295;-88
2022/11/01 11:20:59;;;;;;;7.10;1.85;;;;;;;15.28;63.72;101430.75;5054190;28;20029;-88
2022/11/01 11:23:26;;;;;;;7.82;1.50;;;;;;;15.29;64.97;101427.25;5067509;28;20111;-90
2022/11/01 11:25:51;;;;;;;8.25;1.95;;;;;;;15.27;64.81;101423.81;5076257;28;20075;-89
2022/11/01 11:28:24;;;;;;;6.27;1.73;;;;;;;15.30;65.01;101428.09;5073728;28;20029;-90
2022/11/01 11:30:50;;;;;;;7.68;2.05;;;;;;;15.29;64.84;101432.47;5073403;28;20533;-90
2022/11/01 11:33:17;;;;;;;3.23;1.60;;;;;;;15.29;65.73;101424.63;5073367;28;20111;-89
2022/11/01 11:35:55;;;;;;;4.15;1.50;;;;;;;15.32;65.59;101433.28;5073546;28;20111;-89
2022/11/01 11:38:40;;;;;;;5.05;1.73;;;;;;;15.38;65.43;101433.13;5073709;28;20035;-90